sensor_id;sensor_type;location;lat;lon;timestamp;temperature;humidity
17687;DHT22;8962;52.538;13.266;2024-03-17T00:02:06;5.00;99.90
17687;DHT22;8962;52.538;13.266;2024-03-17T00:04:33;5.00;99.90
17687;DHT22;8962;52.538;13.266;2024-03-17T00:07:01;5.00;99.90
17687;DHT22;8962;52.538;13.266;2024-03-17T00:09:29;5.00;99.90
17687;DHT22;8962;52.538;13.266;2024-03-17T00:11:55;5.00;99.90
17687;DHT22;8962;52.538;13.266;2024-03-17T00:14:22;5.00;99.90
17687;DHT22;8962;52.538;13.266;2024-03-17T00:16:48;5.00;99.90
17687;DHT22;8962;52.538;13.266;2024-03-17T00:19:17;4.90;99.90
17687;DHT22;8962;52.538;13.266;2024-03-17T00:21:44;4.90;99.90
17687;DHT22;8962;52.538;13.266;2024-03-17T00:24:13;4.90;99.90
17687;DHT22;8962;52.538;13.266;2024-03-17T00:26:39;4.90;99.90
17687;DHT22;8962;52.538;13.266;2024-03-17T00:29:06;4.90;99.90
17687;DHT22;8962;52.538;13.266;2024-03-17T00:31:32;4.90;99.90
17687;DHT22;8962;52.538;13.266;2024-03-17T00:33:59;4.90;99.90
17687;DHT22;8962;52.538;13.266;2024-03-17T00:36:26;4.90;99.90
17687;DHT22;8962;52.538;13.266;2024-03-17T00:38:53;4.90;99.90
17687;DHT22;8962;52.538;13.266;2024-03-17T00:41:21;4.80;99.90
17687;DHT22;8962;52.538;13.266;2024-03-17T00:43:49;4.80;99.90
17687;DHT22;8962;52.538;13.266;2024-03-17T00:46:15;4.80;99.90
17687;DHT22;8962;52.538;13.266;2024-03-17T00:48:43;4.80;99.90
17687;DHT22;8962;52.538;13.266;2024-03-17T00:51:12;4.80;99.90
17687;DHT22;8962;52.538;13.266;2024-03-17T00:53:39;4.80;99.90
17687;DHT22;8962;52.538;13.266;2024-03-17T00:56:06;4.80;99.90
17687;DHT22;8962;52.538;13.266;2024-03-17T00:58:35;4.80;99.90
17687;DHT22;8962;52.538;13.266;2024-03-17T01:01:01;4.80;99.90
17687;DHT22;8962;52.538;13.266;2024-03-17T01:03:28;4.80;99.90
17687;DHT22;8962;52.538;13.266;2024-03-17T01:05:54;4.70;99.90
17687;DHT22;8962;52.538;13.266;2024-03-17T01:08:21;4.70;99.90
17687;DHT22;8962;52.538;13.266;2024-03-17T01:10:48;4.70;99.90
17687;DHT22;8962;52.538;13.266;2024-03-17T01:13:17;4.70;99.90
17687;DHT22;8962;52.538;13.266;2024-03-17T01:15:45;4.70;99.90
17687;DHT22;8962;52.538;13.266;2024-03-17T01:18:12;4.70;99.90
17687;DHT22;8962;52.538;13.266;2024-03-17T01:20:38;4.60;99.90
17687;DHT22;8962;52.538;13.266;2024-03-17T01:23:05;4.60;99.90
17687;DHT22;8962;52.538;13.266;2024-03-17T01:25:33;4.60;99.90
17687;DHT22;8962;52.538;13.266;2024-03-17T01:28:03;4.60;99.90
17687;DHT22;8962;52.538;13.266;2024-03-17T01:30:29;4.50;99.90
17687;DHT22;8962;52.538;13.266;2024-03-17T01:33:00;4.60;99.90
17687;DHT22;8962;52.538;13.266;2024-03-17T01:35:27;4.50;99.90
17687;DHT22;8962;52.538;13.266;2024-03-17T01:37:54;4.50;99.90
17687;DHT22;8962;52.538;13.266;2024-03-17T01:40:20;4.50;99.90
17687;DHT22;8962;52.538;13.266;2024-03-17T01:42:48;4.40;99.90
17687;DHT22;8962;52.538;13.266;2024-03-17T01:45:35;4.40;99.90
17687;DHT22;8962;52.538;13.266;2024-03-17T01:48:04;4.40;99.90
17687;DHT22;8962;52.538;13.266;2024-03-17T01:50:36;4.40;99.90
17687;DHT22;8962;52.538;13.266;2024-03-17T01:53:05;4.30;99.90
17687;DHT22;8962;52.538;13.266;2024-03-17T01:55:32;4.30;99.90
17687;DHT22;8962;52.538;13.266;2024-03-17T01:58:00;4.20;99.90
17687;DHT22;8962;52.538;13.266;2024-03-17T02:00:27;4.20;99.90
17687;DHT22;8962;52.538;13.266;2024-03-17T02:02:56;4.20;99.90
17687;DHT22;8962;52.538;13.266;2024-03-17T02:05:24;4.20;99.90
17687;DHT22;8962;52.538;13.266;2024-03-17T02:07:52;4.10;99.90
17687;DHT22;8962;52.538;13.266;2024-03-17T02:10:18;4.10;99.90
17687;DHT22;8962;52.538;13.266;2024-03-17T02:12:45;4.10;99.90
17687;DHT22;8962;52.538;13.266;2024-03-17T02:15:13;4.10;99.90
17687;DHT22;8962;52.538;13.266;2024-03-17T02:17:40;4.10;99.90
17687;DHT22;8962;52.538;13.266;2024-03-17T02:20:07;4.00;99.90
17687;DHT22;8962;52.538;13.266;2024-03-17T02:22:38;4.00;99.90
17687;DHT22;8962;52.538;13.266;2024-03-17T02:25:04;3.90;99.90
17687;DHT22;8962;52.538;13.266;2024-03-17T02:27:34;3.90;99.90
17687;DHT22;8962;52.538;13.266;2024-03-17T02:30:00;3.90;99.90
17687;DHT22;8962;52.538;13.266;2024-03-17T02:32:27;3.80;99.90
17687;DHT22;8962;52.538;13.266;2024-03-17T02:34:54;3.80;99.90
17687;DHT22;8962;52.538;13.266;2024-03-17T02:37:22;3.70;99.90
17687;DHT22;8962;52.538;13.266;2024-03-17T02:39:50;3.80;99.90
17687;DHT22;8962;52.538;13.266;2024-03-17T02:42:18;3.70;99.90
17687;DHT22;8962;52.538;13.266;2024-03-17T02:44:45;3.70;99.90
17687;DHT22;8962;52.538;13.266;2024-03-17T02:47:12;3.70;99.90
17687;DHT22;8962;52.538;13.266;2024-03-17T02:49:41;3.60;99.90
17687;DHT22;8962;52.538;13.266;2024-03-17T02:52:10;3.60;99.90
17687;DHT22;8962;52.538;13.266;2024-03-17T02:54:39;3.60;99.90
17687;DHT22;8962;52.538;13.266;2024-03-17T02:57:07;3.60;99.90
17687;DHT22;8962;52.538;13.266;2024-03-17T02:59:35;3.50;99.90
17687;DHT22;8962;52.538;13.266;2024-03-17T03:02:02;3.50;99.90
17687;DHT22;8962;52.538;13.266;2024-03-17T03:04:30;3.50;99.90
17687;DHT22;8962;52.538;13.266;2024-03-17T03:06:58;3.50;99.90
17687;DHT22;8962;52.538;13.266;2024-03-17T03:09:27;3.50;99.90
17687;DHT22;8962;52.538;13.266;2024-03-17T03:11:57;3.50;99.90
17687;DHT22;8962;52.538;13.266;2024-03-17T03:14:26;3.40;99.90
17687;DHT22;8962;52.538;13.266;2024-03-17T03:16:53;3.30;99.90
17687;DHT22;8962;52.538;13.266;2024-03-17T03:19:20;3.40;99.90
17687;DHT22;8962;52.538;13.266;2024-03-17T03:21:48;3.30;99.90
17687;DHT22;8962;52.538;13.266;2024-03-17T03:24:15;3.30;99.90
17687;DHT22;8962;52.538;13.266;2024-03-17T03:26:42;3.40;99.90
17687;DHT22;8962;52.538;13.266;2024-03-17T03:29:10;3.30;99.90
17687;DHT22;8962;52.538;13.266;2024-03-17T03:31:39;3.30;99.90
17687;DHT22;8962;52.538;13.266;2024-03-17T03:34:06;3.30;99.90
17687;DHT22;8962;52.538;13.266;2024-03-17T03:36:35;3.30;99.90
17687;DHT22;8962;52.538;13.266;2024-03-17T03:39:02;3.30;99.90
17687;DHT22;8962;52.538;13.266;2024-03-17T03:41:31;3.40;99.90
17687;DHT22;8962;52.538;13.266;2024-03-17T03:43:58;3.30;99.90
17687;DHT22;8962;52.538;13.266;2024-03-17T03:46:26;3.30;99.90
17687;DHT22;8962;52.538;13.266;2024-03-17T03:48:54;3.30;99.90
17687;DHT22;8962;52.538;13.266;2024-03-17T03:51:21;3.30;99.90
17687;DHT22;8962;52.538;13.266;2024-03-17T03:53:50;3.20;99.90
17687;DHT22;8962;52.538;13.266;2024-03-17T03:56:18;3.20;99.90
17687;DHT22;8962;52.538;13.266;2024-03-17T03:58:46;3.20;99.90
17687;DHT22;8962;52.538;13.266;2024-03-17T04:01:15;3.20;99.90
17687;DHT22;8962;52.538;13.266;2024-03-17T04:03:47;3.20;99.90
17687;DHT22;8962;52.538;13.266;2024-03-17T04:06:16;3.10;99.90
17687;DHT22;8962;52.538;13.266;2024-03-17T04:08:43;3.20;99.90
17687;DHT22;8962;52.538;13.266;2024-03-17T04:11:10;3.20;99.90
17687;DHT22;8962;52.538;13.266;2024-03-17T04:13:38;3.20;99.90
17687;DHT22;8962;52.538;13.266;2024-03-17T04:16:06;3.10;99.90
17687;DHT22;8962;52.538;13.266;2024-03-17T04:18:34;3.20;99.90
17687;DHT22;8962;52.538;13.266;2024-03-17T04:21:02;3.10;99.90
17687;DHT22;8962;52.538;13.266;2024-03-17T04:23:31;3.10;99.90
17687;DHT22;8962;52.538;13.266;2024-03-17T04:26:00;3.10;99.90
17687;DHT22;8962;52.538;13.266;2024-03-17T04:28:27;3.00;99.90
17687;DHT22;8962;52.538;13.266;2024-03-17T04:31:02;3.00;99.90
17687;DHT22;8962;52.538;13.266;2024-03-17T04:33:31;3.00;99.90
17687;DHT22;8962;52.538;13.266;2024-03-17T04:35:58;3.00;99.90
17687;DHT22;8962;52.538;13.266;2024-03-17T04:38:26;3.00;99.90
17687;DHT22;8962;52.538;13.266;2024-03-17T04:40:54;3.00;99.90
17687;DHT22;8962;52.538;13.266;2024-03-17T04:43:30;3.00;99.90
17687;DHT22;8962;52.538;13.266;2024-03-17T04:46:02;3.00;99.90
17687;DHT22;8962;52.538;13.266;2024-03-17T04:48:32;3.00;99.90
17687;DHT22;8962;52.538;13.266;2024-03-17T04:50:59;3.00;99.90
17687;DHT22;8962;52.538;13.266;2024-03-17T04:53:26;3.00;99.90
17687;DHT22;8962;52.538;13.266;2024-03-17T04:56:00;3.00;99.90
17687;DHT22;8962;52.538;13.266;2024-03-17T04:58:31;3.00;99.90
17687;DHT22;8962;52.538;13.266;2024-03-17T05:01:02;3.00;99.90
17687;DHT22;8962;52.538;13.266;2024-03-17T05:03:29;3.00;99.90
17687;DHT22;8962;52.538;13.266;2024-03-17T05:06:00;3.00;99.90
17687;DHT22;8962;52.538;13.266;2024-03-17T05:08:28;2.90;99.90
17687;DHT22;8962;52.538;13.266;2024-03-17T05:11:00;2.90;99.90
17687;DHT22;8962;52.538;13.266;2024-03-17T05:13:27;3.00;99.90
17687;DHT22;8962;52.538;13.266;2024-03-17T05:15:54;3.00;99.90
17687;DHT22;8962;52.538;13.266;2024-03-17T05:18:22;3.00;99.90
17687;DHT22;8962;52.538;13.266;2024-03-17T05:20:57;3.00;99.90
17687;DHT22;8962;52.538;13.266;2024-03-17T05:23:26;2.90;99.90
17687;DHT22;8962;52.538;13.266;2024-03-17T05:25:54;3.00;99.90
17687;DHT22;8962;52.538;13.266;2024-03-17T05:28:23;3.00;99.90
17687;DHT22;8962;52.538;13.266;2024-03-17T05:30:50;2.90;99.90
17687;DHT22;8962;52.538;13.266;2024-03-17T05:33:18;2.90;99.90
17687;DHT22;8962;52.538;13.266;2024-03-17T05:35:50;3.00;99.90
17687;DHT22;8962;52.538;13.266;2024-03-17T05:38:18;3.00;99.90
17687;DHT22;8962;52.538;13.266;2024-03-17T05:40:55;3.00;99.90
17687;DHT22;8962;52.538;13.266;2024-03-17T05:43:25;3.00;99.90
17687;DHT22;8962;52.538;13.266;2024-03-17T05:45:53;3.00;99.90
17687;DHT22;8962;52.538;13.266;2024-03-17T05:48:20;3.00;99.90
17687;DHT22;8962;52.538;13.266;2024-03-17T05:50:47;3.00;99.90
17687;DHT22;8962;52.538;13.266;2024-03-17T05:53:16;3.00;99.90
17687;DHT22;8962;52.538;13.266;2024-03-17T05:55:44;3.00;99.90
17687;DHT22;8962;52.538;13.266;2024-03-17T05:58:11;3.00;99.90
17687;DHT22;8962;52.538;13.266;2024-03-17T06:00:40;3.00;99.90
17687;DHT22;8962;52.538;13.266;2024-03-17T06:03:07;3.10;99.90
17687;DHT22;8962;52.538;13.266;2024-03-17T06:05:35;3.10;99.90
17687;DHT22;8962;52.538;13.266;2024-03-17T06:08:03;3.10;99.90
17687;DHT22;8962;52.538;13.266;2024-03-17T06:10:31;3.20;99.90
17687;DHT22;8962;52.538;13.266;2024-03-17T06:13:00;3.20;99.90
17687;DHT22;8962;52.538;13.266;2024-03-17T06:15:27;3.20;99.90
17687;DHT22;8962;52.538;13.266;2024-03-17T06:17:56;3.20;99.90
17687;DHT22;8962;52.538;13.266;2024-03-17T06:20:24;3.30;99.90
17687;DHT22;8962;52.538;13.266;2024-03-17T06:22:52;3.30;99.90
17687;DHT22;8962;52.538;13.266;2024-03-17T06:25:19;3.40;99.90
17687;DHT22;8962;52.538;13.266;2024-03-17T06:27:49;3.40;99.90
17687;DHT22;8962;52.538;13.266;2024-03-17T06:30:15;3.50;99.90
17687;DHT22;8962;52.538;13.266;2024-03-17T06:32:42;3.50;99.90
17687;DHT22;8962;52.538;13.266;2024-03-17T06:35:12;3.60;99.90
17687;DHT22;8962;52.538;13.266;2024-03-17T06:37:41;3.70;99.90
17687;DHT22;8962;52.538;13.266;2024-03-17T06:40:11;3.70;99.90
17687;DHT22;8962;52.538;13.266;2024-03-17T06:42:39;3.70;99.90
17687;DHT22;8962;52.538;13.266;2024-03-17T06:45:07;3.80;99.90
17687;DHT22;8962;52.538;13.266;2024-03-17T06:47:34;3.90;99.90
17687;DHT22;8962;52.538;13.266;2024-03-17T06:50:02;4.00;99.90
17687;DHT22;8962;52.538;13.266;2024-03-17T06:52:31;4.10;99.90
17687;DHT22;8962;52.538;13.266;2024-03-17T06:54:59;4.20;99.90
17687;DHT22;8962;52.538;13.266;2024-03-17T06:57:27;4.20;99.90
17687;DHT22;8962;52.538;13.266;2024-03-17T06:59:54;4.30;99.90
17687;DHT22;8962;52.538;13.266;2024-03-17T07:02:21;4.40;99.90
17687;DHT22;8962;52.538;13.266;2024-03-17T07:04:48;4.50;99.90
17687;DHT22;8962;52.538;13.266;2024-03-17T07:07:15;4.70;99.90
17687;DHT22;8962;52.538;13.266;2024-03-17T07:09:43;4.80;99.90
17687;DHT22;8962;52.538;13.266;2024-03-17T07:12:11;4.90;99.90
17687;DHT22;8962;52.538;13.266;2024-03-17T07:14:38;5.00;99.90
17687;DHT22;8962;52.538;13.266;2024-03-17T07:17:05;5.00;99.90
17687;DHT22;8962;52.538;13.266;2024-03-17T07:19:32;4.90;99.90
17687;DHT22;8962;52.538;13.266;2024-03-17T07:22:01;5.00;99.90
17687;DHT22;8962;52.538;13.266;2024-03-17T07:24:29;5.10;99.90
17687;DHT22;8962;52.538;13.266;2024-03-17T07:26:57;5.20;99.90
17687;DHT22;8962;52.538;13.266;2024-03-17T07:29:25;5.20;99.90
17687;DHT22;8962;52.538;13.266;2024-03-17T07:31:52;5.30;99.90
17687;DHT22;8962;52.538;13.266;2024-03-17T07:34:19;5.40;99.90
17687;DHT22;8962;52.538;13.266;2024-03-17T07:36:46;5.50;99.90
17687;DHT22;8962;52.538;13.266;2024-03-17T07:39:13;5.50;99.90
17687;DHT22;8962;52.538;13.266;2024-03-17T07:41:40;5.30;99.90
17687;DHT22;8962;52.538;13.266;2024-03-17T07:44:09;5.20;99.90
17687;DHT22;8962;52.538;13.266;2024-03-17T07:46:35;5.30;99.90
17687;DHT22;8962;52.538;13.266;2024-03-17T07:49:03;5.30;99.90
17687;DHT22;8962;52.538;13.266;2024-03-17T07:51:30;5.20;99.90
17687;DHT22;8962;52.538;13.266;2024-03-17T07:54:00;5.20;99.90
17687;DHT22;8962;52.538;13.266;2024-03-17T07:56:27;5.20;99.90
17687;DHT22;8962;52.538;13.266;2024-03-17T07:58:54;5.20;99.90
17687;DHT22;8962;52.538;13.266;2024-03-17T08:01:22;5.20;99.90
17687;DHT22;8962;52.538;13.266;2024-03-17T08:03:49;5.30;99.90
17687;DHT22;8962;52.538;13.266;2024-03-17T08:06:21;5.50;99.90
17687;DHT22;8962;52.538;13.266;2024-03-17T08:08:49;5.70;99.90
17687;DHT22;8962;52.538;13.266;2024-03-17T08:11:16;5.80;99.90
17687;DHT22;8962;52.538;13.266;2024-03-17T08:13:43;5.80;99.90
17687;DHT22;8962;52.538;13.266;2024-03-17T08:16:10;6.00;99.90
17687;DHT22;8962;52.538;13.266;2024-03-17T08:18:39;6.00;99.90
17687;DHT22;8962;52.538;13.266;2024-03-17T08:21:07;6.30;99.90
17687;DHT22;8962;52.538;13.266;2024-03-17T08:23:35;6.40;99.90
17687;DHT22;8962;52.538;13.266;2024-03-17T08:26:07;6.70;99.90
17687;DHT22;8962;52.538;13.266;2024-03-17T08:28:34;7.00;99.90
17687;DHT22;8962;52.538;13.266;2024-03-17T08:31:03;7.20;99.90
17687;DHT22;8962;52.538;13.266;2024-03-17T08:33:31;7.10;99.90
17687;DHT22;8962;52.538;13.266;2024-03-17T08:36:03;7.00;99.90
17687;DHT22;8962;52.538;13.266;2024-03-17T08:38:31;7.00;99.90
17687;DHT22;8962;52.538;13.266;2024-03-17T08:41:03;6.70;99.90
17687;DHT22;8962;52.538;13.266;2024-03-17T08:43:31;6.90;99.90
17687;DHT22;8962;52.538;13.266;2024-03-17T08:45:58;7.00;99.90
17687;DHT22;8962;52.538;13.266;2024-03-17T08:48:28;7.20;99.90
17687;DHT22;8962;52.538;13.266;2024-03-17T08:50:56;7.50;99.90
17687;DHT22;8962;52.538;13.266;2024-03-17T08:53:26;7.40;99.90
17687;DHT22;8962;52.538;13.266;2024-03-17T08:55:54;7.30;99.90
17687;DHT22;8962;52.538;13.266;2024-03-17T08:58:24;7.40;99.90
17687;DHT22;8962;52.538;13.266;2024-03-17T09:00:52;7.40;99.90
17687;DHT22;8962;52.538;13.266;2024-03-17T09:03:19;7.80;99.90
17687;DHT22;8962;52.538;13.266;2024-03-17T09:05:47;7.90;99.90
17687;DHT22;8962;52.538;13.266;2024-03-17T09:08:18;8.20;99.90
17687;DHT22;8962;52.538;13.266;2024-03-17T09:10:49;8.30;99.90
17687;DHT22;8962;52.538;13.266;2024-03-17T09:13:19;8.30;99.90
17687;DHT22;8962;52.538;13.266;2024-03-17T09:15:51;8.20;99.90
17687;DHT22;8962;52.538;13.266;2024-03-17T09:18:24;8.00;99.90
17687;DHT22;8962;52.538;13.266;2024-03-17T09:20:58;8.00;99.90
17687;DHT22;8962;52.538;13.266;2024-03-17T09:23:25;8.20;99.90
17687;DHT22;8962;52.538;13.266;2024-03-17T09:25:59;8.40;99.90
17687;DHT22;8962;52.538;13.266;2024-03-17T09:28:28;8.40;99.90
17687;DHT22;8962;52.538;13.266;2024-03-17T09:30:56;8.60;99.90
17687;DHT22;8962;52.538;13.266;2024-03-17T09:33:24;8.70;99.90
17687;DHT22;8962;52.538;13.266;2024-03-17T09:35:55;8.50;99.90
17687;DHT22;8962;52.538;13.266;2024-03-17T09:38:24;8.50;99.90
17687;DHT22;8962;52.538;13.266;2024-03-17T09:40:51;8.60;99.90
17687;DHT22;8962;52.538;13.266;2024-03-17T09:43:26;8.80;99.90
17687;DHT22;8962;52.538;13.266;2024-03-17T09:45:54;8.80;99.90
17687;DHT22;8962;52.538;13.266;2024-03-17T09:48:24;8.70;99.90
17687;DHT22;8962;52.538;13.266;2024-03-17T09:50:54;9.00;99.90
17687;DHT22;8962;52.538;13.266;2024-03-17T09:53:24;9.00;99.90
17687;DHT22;8962;52.538;13.266;2024-03-17T09:55:52;8.40;99.90
17687;DHT22;8962;52.538;13.266;2024-03-17T09:58:19;8.40;99.90
17687;DHT22;8962;52.538;13.266;2024-03-17T10:00:48;8.70;99.90
17687;DHT22;8962;52.538;13.266;2024-03-17T10:03:39;8.90;99.90
17687;DHT22;8962;52.538;13.266;2024-03-17T10:06:07;8.70;99.90
17687;DHT22;8962;52.538;13.266;2024-03-17T10:08:40;8.20;99.90
17687;DHT22;8962;52.538;13.266;2024-03-17T10:11:08;8.10;99.90
17687;DHT22;8962;52.538;13.266;2024-03-17T10:13:35;8.30;99.90
17687;DHT22;8962;52.538;13.266;2024-03-17T10:16:04;8.50;99.90
17687;DHT22;8962;52.538;13.266;2024-03-17T10:18:32;8.90;99.90
17687;DHT22;8962;52.538;13.266;2024-03-17T10:21:01;9.20;99.90
17687;DHT22;8962;52.538;13.266;2024-03-17T10:23:28;9.00;99.90
17687;DHT22;8962;52.538;13.266;2024-03-17T10:25:56;8.80;99.90
17687;DHT22;8962;52.538;13.266;2024-03-17T10:28:23;8.70;99.90
17687;DHT22;8962;52.538;13.266;2024-03-17T10:31:00;8.90;99.90
17687;DHT22;8962;52.538;13.266;2024-03-17T10:33:30;9.00;99.90
17687;DHT22;8962;52.538;13.266;2024-03-17T10:36:00;9.40;99.90
17687;DHT22;8962;52.538;13.266;2024-03-17T10:38:32;9.60;99.90
17687;DHT22;8962;52.538;13.266;2024-03-17T10:41:01;9.50;99.00
17687;DHT22;8962;52.538;13.266;2024-03-17T10:43:29;9.30;99.20
17687;DHT22;8962;52.538;13.266;2024-03-17T10:45:57;8.90;99.60
17687;DHT22;8962;52.538;13.266;2024-03-17T10:48:28;8.70;99.90
17687;DHT22;8962;52.538;13.266;2024-03-17T10:51:01;8.80;99.90
17687;DHT22;8962;52.538;13.266;2024-03-17T10:53:30;8.80;99.40
17687;DHT22;8962;52.538;13.266;2024-03-17T10:56:04;8.70;99.40
17687;DHT22;8962;52.538;13.266;2024-03-17T10:58:35;8.60;99.60
17687;DHT22;8962;52.538;13.266;2024-03-17T11:01:03;8.70;99.70
17687;DHT22;8962;52.538;13.266;2024-03-17T11:03:33;8.60;99.30
17687;DHT22;8962;52.538;13.266;2024-03-17T11:06:03;9.00;99.90
17687;DHT22;8962;52.538;13.266;2024-03-17T11:08:32;9.30;97.80
17687;DHT22;8962;52.538;13.266;2024-03-17T11:11:00;9.50;97.30
17687;DHT22;8962;52.538;13.266;2024-03-17T11:13:30;9.30;96.80
17687;DHT22;8962;52.538;13.266;2024-03-17T11:15:58;9.10;96.70
17687;DHT22;8962;52.538;13.266;2024-03-17T11:18:39;9.00;96.50
17687;DHT22;8962;52.538;13.266;2024-03-17T11:21:19;9.30;95.90
17687;DHT22;8962;52.538;13.266;2024-03-17T11:23:58;9.40;95.40
17687;DHT22;8962;52.538;13.266;2024-03-17T11:26:31;9.80;95.30
17687;DHT22;8962;52.538;13.266;2024-03-17T11:28:58;9.90;95.10
17687;DHT22;8962;52.538;13.266;2024-03-17T11:31:37;9.80;95.40
17687;DHT22;8962;52.538;13.266;2024-03-17T11:36:52;10.00;92.70
17687;DHT22;8962;52.538;13.266;2024-03-17T11:39:20;10.40;93.40
17687;DHT22;8962;52.538;13.266;2024-03-17T11:41:51;11.30;91.00
17687;DHT22;8962;52.538;13.266;2024-03-17T11:44:25;12.70;85.40
17687;DHT22;8962;52.538;13.266;2024-03-17T11:46:54;14.00;72.60
17687;DHT22;8962;52.538;13.266;2024-03-17T11:49:22;14.40;62.60
17687;DHT22;8962;52.538;13.266;2024-03-17T11:51:53;15.10;55.10
17687;DHT22;8962;52.538;13.266;2024-03-17T11:54:20;14.80;49.90
17687;DHT22;8962;52.538;13.266;2024-03-17T11:56:48;15.30;48.80
17687;DHT22;8962;52.538;13.266;2024-03-17T11:59:15;15.10;45.60
17687;DHT22;8962;52.538;13.266;2024-03-17T12:01:45;13.40;43.60
17687;DHT22;8962;52.538;13.266;2024-03-17T12:04:13;12.70;46.00
17687;DHT22;8962;52.538;13.266;2024-03-17T12:06:43;12.20;43.80
17687;DHT22;8962;52.538;13.266;2024-03-17T12:09:18;10.70;47.70
17687;DHT22;8962;52.538;13.266;2024-03-17T12:11:46;12.20;46.30
17687;DHT22;8962;52.538;13.266;2024-03-17T12:14:17;13.60;44.80
17687;DHT22;8962;52.538;13.266;2024-03-17T12:16:52;14.70;40.40
17687;DHT22;8962;52.538;13.266;2024-03-17T12:19:20;15.40;39.10
17687;DHT22;8962;52.538;13.266;2024-03-17T12:21:48;14.90;37.70
17687;DHT22;8962;52.538;13.266;2024-03-17T12:24:19;13.30;39.40
17687;DHT22;8962;52.538;13.266;2024-03-17T12:26:47;11.30;44.10
17687;DHT22;8962;52.538;13.266;2024-03-17T12:29:26;10.40;49.90
17687;DHT22;8962;52.538;13.266;2024-03-17T12:31:54;10.00;54.40
17687;DHT22;8962;52.538;13.266;2024-03-17T12:34:25;10.60;55.60
17687;DHT22;8962;52.538;13.266;2024-03-17T12:36:58;11.10;54.60
17687;DHT22;8962;52.538;13.266;2024-03-17T12:39:28;10.50;56.30
17687;DHT22;8962;52.538;13.266;2024-03-17T12:42:07;10.20;57.50
17687;DHT22;8962;52.538;13.266;2024-03-17T12:44:36;10.40;56.60
17687;DHT22;8962;52.538;13.266;2024-03-17T12:47:04;9.90;58.50
17687;DHT22;8962;52.538;13.266;2024-03-17T12:49:32;9.70;58.70
17687;DHT22;8962;52.538;13.266;2024-03-17T12:52:01;9.40;59.60
17687;DHT22;8962;52.538;13.266;2024-03-17T12:54:29;9.60;60.60
17687;DHT22;8962;52.538;13.266;2024-03-17T12:57:06;9.70;60.70
17687;DHT22;8962;52.538;13.266;2024-03-17T12:59:52;9.90;62.10
17687;DHT22;8962;52.538;13.266;2024-03-17T13:02:41;10.10;62.00
17687;DHT22;8962;52.538;13.266;2024-03-17T13:05:17;10.40;57.20
17687;DHT22;8962;52.538;13.266;2024-03-17T13:07:44;10.40;57.50
17687;DHT22;8962;52.538;13.266;2024-03-17T13:10:15;10.50;58.80
17687;DHT22;8962;52.538;13.266;2024-03-17T13:12:43;10.50;58.10
17687;DHT22;8962;52.538;13.266;2024-03-17T13:15:12;10.20;57.90
17687;DHT22;8962;52.538;13.266;2024-03-17T13:17:42;10.70;58.60
17687;DHT22;8962;52.538;13.266;2024-03-17T13:20:14;13.40;50.20
17687;DHT22;8962;52.538;13.266;2024-03-17T13:22:42;16.10;39.80
17687;DHT22;8962;52.538;13.266;2024-03-17T13:25:15;16.80;34.20
17687;DHT22;8962;52.538;13.266;2024-03-17T13:27:43;16.10;31.00
17687;DHT22;8962;52.538;13.266;2024-03-17T13:30:11;15.10;32.50
17687;DHT22;8962;52.538;13.266;2024-03-17T13:32:39;15.10;33.10
17687;DHT22;8962;52.538;13.266;2024-03-17T13:35:14;14.50;33.60
17687;DHT22;8962;52.538;13.266;2024-03-17T13:37:42;13.60;37.10
17687;DHT22;8962;52.538;13.266;2024-03-17T13:40:10;13.40;38.00
17687;DHT22;8962;52.538;13.266;2024-03-17T13:42:39;12.80;39.00
17687;DHT22;8962;52.538;13.266;2024-03-17T13:45:10;12.20;41.30
17687;DHT22;8962;52.538;13.266;2024-03-17T13:47:40;11.90;42.40
17687;DHT22;8962;52.538;13.266;2024-03-17T13:50:08;12.30;42.30
17687;DHT22;8962;52.538;13.266;2024-03-17T13:52:43;13.90;38.20
17687;DHT22;8962;52.538;13.266;2024-03-17T13:55:13;13.70;39.00
17687;DHT22;8962;52.538;13.266;2024-03-17T13:57:44;13.10;37.70
17687;DHT22;8962;52.538;13.266;2024-03-17T14:00:14;12.50;39.50
17687;DHT22;8962;52.538;13.266;2024-03-17T14:02:42;11.90;41.60
17687;DHT22;8962;52.538;13.266;2024-03-17T14:05:14;12.30;42.90
17687;DHT22;8962;52.538;13.266;2024-03-17T14:07:41;14.10;39.50
17687;DHT22;8962;52.538;13.266;2024-03-17T14:10:13;16.40;33.40
17687;DHT22;8962;52.538;13.266;2024-03-17T14:12:42;18.30;26.60
17687;DHT22;8962;52.538;13.266;2024-03-17T14:15:11;18.90;22.40
17687;DHT22;8962;52.538;13.266;2024-03-17T14:17:39;18.50;20.80
17687;DHT22;8962;52.538;13.266;2024-03-17T14:20:07;18.10;20.90
17687;DHT22;8962;52.538;13.266;2024-03-17T14:22:40;17.80;21.50
17687;DHT22;8962;52.538;13.266;2024-03-17T14:25:10;18.20;21.00
17687;DHT22;8962;52.538;13.266;2024-03-17T14:27:39;18.00;20.60
17687;DHT22;8962;52.538;13.266;2024-03-17T14:30:09;17.50;21.70
17687;DHT22;8962;52.538;13.266;2024-03-17T14:32:39;18.00;21.50
17687;DHT22;8962;52.538;13.266;2024-03-17T14:35:12;17.00;22.00
17687;DHT22;8962;52.538;13.266;2024-03-17T14:37:51;16.00;23.30
17687;DHT22;8962;52.538;13.266;2024-03-17T14:40:19;15.10;24.80
17687;DHT22;8962;52.538;13.266;2024-03-17T14:42:49;14.00;27.10
17687;DHT22;8962;52.538;13.266;2024-03-17T14:45:18;13.40;28.80
17687;DHT22;8962;52.538;13.266;2024-03-17T14:47:49;13.00;29.10
17687;DHT22;8962;52.538;13.266;2024-03-17T14:50:17;12.80;29.80
17687;DHT22;8962;52.538;13.266;2024-03-17T14:52:45;12.50;30.00
17687;DHT22;8962;52.538;13.266;2024-03-17T14:55:12;12.00;32.00
17687;DHT22;8962;52.538;13.266;2024-03-17T14:57:40;11.70;33.30
17687;DHT22;8962;52.538;13.266;2024-03-17T15:00:10;11.30;35.40
17687;DHT22;8962;52.538;13.266;2024-03-17T15:02:45;10.70;37.40
17687;DHT22;8962;52.538;13.266;2024-03-17T15:05:14;10.60;38.90
17687;DHT22;8962;52.538;13.266;2024-03-17T15:07:42;10.60;39.10
17687;DHT22;8962;52.538;13.266;2024-03-17T15:10:10;10.60;39.50
17687;DHT22;8962;52.538;13.266;2024-03-17T15:12:38;10.60;39.80
17687;DHT22;8962;52.538;13.266;2024-03-17T15:15:07;10.60;40.00
17687;DHT22;8962;52.538;13.266;2024-03-17T15:17:36;10.50;40.00
17687;DHT22;8962;52.538;13.266;2024-03-17T15:20:07;10.30;41.20
17687;DHT22;8962;52.538;13.266;2024-03-17T15:22:42;10.30;41.60
17687;DHT22;8962;52.538;13.266;2024-03-17T15:25:09;10.30;42.70
17687;DHT22;8962;52.538;13.266;2024-03-17T15:27:38;10.30;43.10
17687;DHT22;8962;52.538;13.266;2024-03-17T15:30:07;10.10;43.90
17687;DHT22;8962;52.538;13.266;2024-03-17T15:32:36;10.10;44.60
17687;DHT22;8962;52.538;13.266;2024-03-17T15:35:08;10.00;45.00
17687;DHT22;8962;52.538;13.266;2024-03-17T15:37:35;9.90;46.50
17687;DHT22;8962;52.538;13.266;2024-03-17T15:40:03;9.90;46.90
17687;DHT22;8962;52.538;13.266;2024-03-17T15:42:31;9.90;47.10
17687;DHT22;8962;52.538;13.266;2024-03-17T15:44:59;9.80;47.60
17687;DHT22;8962;52.538;13.266;2024-03-17T15:47:26;9.70;47.30
17687;DHT22;8962;52.538;13.266;2024-03-17T15:49:53;9.60;48.60
17687;DHT22;8962;52.538;13.266;2024-03-17T15:52:22;9.50;49.60
17687;DHT22;8962;52.538;13.266;2024-03-17T15:54:49;9.40;50.20
17687;DHT22;8962;52.538;13.266;2024-03-17T15:57:17;9.40;50.50